Time;durP1;ratioP1;P1;durP2;ratioP2;P2;SDS_P1;SDS_P2;PMS_P1;PMS_P2;Temp;Humidity;BMP_temperature;BMP_pressure;BME280_temperature;BME280_humidity;BME280_pressure;Samples;Min_cycle;Max_cycle;Signal;HPM_P1;HPM_P2
2023/10/29 00:02:14;;;;;;;13.73;1.90;;;;;;;;;;5030118;28;20641;-81
2023/10/29 00:04:41;;;;;;;10.90;2.03;;;;;;;;;;5030428;28;20216;-80
2023/10/29 00:07:08;;;;;;;12.57;2.03;;;;;;;;;;5030435;28;20263;-81
2023/10/29 00:09:36;;;;;;;14.50;2.33;;;;;;;;;;5030087;28;20288;-81
2023/10/29 00:12:03;;;;;;;11.47;2.17;;;;;;;;;;5029902;28;20224;-81
2023/10/29 00:14:31;;;;;;;11.97;2.17;;;;;;;;;;5030208;28;20196;-80
2023/10/29 00:16:58;;;;;;;16.30;2.97;;;;;;;;;;5030717;28;20287;-81
2023/10/29 00:19:26;;;;;;;14.23;2.43;;;;;;;;;;5030882;28;20228;-81
2023/10/29 00:21:53;;;;;;;11.33;2.03;;;;;;;;;;5033425;28;20718;-79
2023/10/29 00:24:22;;;;;;;13.80;2.60;;;;;;;;;;5033320;28;20668;-80
2023/10/29 00:26:49;;;;;;;13.33;2.37;;;;;;;;;;5033347;28;20216;-80
2023/10/29 00:29:16;;;;;;;16.13;2.37;;;;;;;;;;4995166;28;1108421;-81
2023/10/29 00:31:44;;;;;;;12.13;1.80;;;;;;;;;;5034855;28;20255;-81
2023/10/29 00:34:12;;;;;;;17.27;2.03;;;;;;;;;;5034599;28;20236;-81
2023/10/29 00:36:39;;;;;;;14.93;2.37;;;;;;;;;;5035236;28;20287;-81
2023/10/29 00:39:06;;;;;;;15.30;1.90;;;;;;;;;;5034676;28;20228;-78
2023/10/29 00:41:33;;;;;;;11.40;1.90;;;;;;;;;;5034301;28;20232;-80
2023/10/29 00:44:00;;;;;;;15.47;2.57;;;;;;;;;;5035032;28;20275;-80
2023/10/29 00:46:28;;;;;;;16.73;2.27;;;;;;;;;;5034959;28;20232;-81
2023/10/29 00:48:56;;;;;;;13.73;2.60;;;;;;;;;;5034756;28;20283;-81
2023/10/29 00:51:23;;;;;;;11.73;2.07;;;;;;;;;;5034154;28;20632;-80
2023/10/29 00:53:51;;;;;;;10.93;1.90;;;;;;;;;;5034513;28;20289;-81
2023/10/29 00:56:18;;;;;;;12.23;2.10;;;;;;;;;;5034025;28;20640;-80
2023/10/29 00:58:46;;;;;;;11.73;2.63;;;;;;;;;;5034218;28;20339;-80
2023/10/29 01:01:14;;;;;;;14.13;2.17;;;;;;;;;;5034423;28;20196;-80
2023/10/29 01:03:42;;;;;;;10.40;2.07;;;;;;;;;;5034259;28;20243;-81
2023/10/29 01:06:11;;;;;;;11.13;1.77;;;;;;;;;;5034058;28;20210;-81
2023/10/29 01:08:38;;;;;;;15.77;1.93;;;;;;;;;;5034293;28;20192;-80
2023/10/29 01:11:07;;;;;;;12.60;1.93;;;;;;;;;;5034034;28;20243;-80
2023/10/29 01:13:34;;;;;;;15.87;2.10;;;;;;;;;;5034053;28;20311;-79
2023/10/29 01:16:04;;;;;;;12.57;2.10;;;;;;;;;;5025545;28;20193;-81
2023/10/29 01:18:32;;;;;;;13.07;2.30;;;;;;;;;;5030540;28;20236;-80
2023/10/29 01:20:59;;;;;;;16.20;2.50;;;;;;;;;;5034216;28;20302;-81
2023/10/29 01:23:28;;;;;;;16.57;1.87;;;;;;;;;;5034383;28;20236;-81
2023/10/29 01:25:58;;;;;;;11.50;2.30;;;;;;;;;;5033965;28;20201;-80
2023/10/29 01:28:25;;;;;;;15.23;1.97;;;;;;;;;;5034058;28;20193;-81
2023/10/29 01:30:52;;;;;;;15.23;2.47;;;;;;;;;;5033293;28;20256;-80
2023/10/29 01:33:20;;;;;;;12.87;2.23;;;;;;;;;;5034107;28;20232;-80
2023/10/29 01:35:47;;;;;;;15.73;2.30;;;;;;;;;;5033333;28;20295;-80
2023/10/29 01:38:14;;;;;;;13.60;2.40;;;;;;;;;;5033685;28;20235;-80
2023/10/29 01:40:43;;;;;;;18.00;2.23;;;;;;;;;;5033313;28;20239;-80
2023/10/29 01:43:10;;;;;;;19.40;2.10;;;;;;;;;;5033632;28;20196;-80
2023/10/29 01:45:38;;;;;;;15.50;2.60;;;;;;;;;;5033819;28;20611;-81
2023/10/29 01:48:05;;;;;;;15.67;2.43;;;;;;;;;;5033939;28;20588;-81
2023/10/29 01:50:32;;;;;;;12.17;2.10;;;;;;;;;;5033544;28;20224;-81
2023/10/29 01:53:00;;;;;;;16.47;2.07;;;;;;;;;;5032968;28;20252;-81
2023/10/29 01:55:27;;;;;;;11.83;1.83;;;;;;;;;;5033497;28;20193;-81
2023/10/29 01:57:55;;;;;;;17.63;2.20;;;;;;;;;;5033308;28;20279;-81
2023/10/29 02:00:23;;;;;;;12.47;2.20;;;;;;;;;;5032923;28;20755;-81
2023/10/29 02:02:51;;;;;;;15.17;2.30;;;;;;;;;;5033350;28;20238;-81
2023/10/29 02:05:19;;;;;;;12.77;2.13;;;;;;;;;;5033472;28;20266;-81
2023/10/29 02:07:46;;;;;;;15.00;2.67;;;;;;;;;;5033121;28;20232;-79
2023/10/29 02:10:13;;;;;;;13.87;2.00;;;;;;;;;;5033223;28;20220;-81
2023/10/29 02:12:40;;;;;;;12.40;2.03;;;;;;;;;;5032793;28;20252;-80
2023/10/29 02:15:09;;;;;;;16.07;2.70;;;;;;;;;;5033606;28;20287;-81
2023/10/29 02:17:36;;;;;;;16.27;2.93;;;;;;;;;;5032944;28;20287;-81
2023/10/29 02:20:05;;;;;;;13.17;2.07;;;;;;;;;;5033174;28;20635;-81
2023/10/29 02:22:34;;;;;;;14.37;2.33;;;;;;;;;;5032763;28;20204;-80
2023/10/29 02:25:01;;;;;;;16.30;2.73;;;;;;;;;;5032749;28;20346;-81
2023/10/29 02:27:28;;;;;;;14.67;1.90;;;;;;;;;;5032803;28;20232;-81
2023/10/29 02:29:55;;;;;;;15.17;2.17;;;;;;;;;;5032790;28;20323;-81
2023/10/29 02:32:22;;;;;;;12.43;1.87;;;;;;;;;;5032500;28;20719;-81
2023/10/29 02:34:50;;;;;;;17.93;2.33;;;;;;;;;;5032255;28;20291;-81
2023/10/29 02:37:17;;;;;;;11.97;2.00;;;;;;;;;;5032399;28;20807;-81
2023/10/29 02:39:45;;;;;;;13.10;2.00;;;;;;;;;;5032529;28;20200;-81
2023/10/29 02:42:16;;;;;;;18.27;2.57;;;;;;;;;;5031808;28;20228;-81
2023/10/29 02:44:44;;;;;;;14.97;2.33;;;;;;;;;;5032771;28;20231;-81
2023/10/29 02:47:11;;;;;;;12.70;2.60;;;;;;;;;;5033147;28;20339;-81
2023/10/29 02:49:38;;;;;;;11.87;1.80;;;;;;;;;;5028415;28;20206;-80
2023/10/29 02:52:06;;;;;;;10.90;1.70;;;;;;;;;;5022586;28;20266;-81
2023/10/29 02:54:34;;;;;;;11.13;1.80;;;;;;;;;;5014379;28;20228;-81
2023/10/29 02:57:03;;;;;;;13.47;1.93;;;;;;;;;;5032224;28;20292;-80
2023/10/29 02:59:30;;;;;;;17.60;2.40;;;;;;;;;;5031678;28;20207;-81
2023/10/29 03:01:57;;;;;;;16.50;2.13;;;;;;;;;;5032209;28;20274;-81
2023/10/29 03:04:24;;;;;;;16.87;2.20;;;;;;;;;;5032078;28;20224;-81
2023/10/29 03:06:52;;;;;;;10.03;1.73;;;;;;;;;;5031683;28;20243;-82
2023/10/29 03:09:19;;;;;;;9.73;1.70;;;;;;;;;;5032291;28;20203;-81
2023/10/29 03:11:46;;;;;;;13.00;1.80;;;;;;;;;;5031861;28;20910;-80
2023/10/29 03:14:15;;;;;;;14.70;1.93;;;;;;;;;;5032102;28;20278;-82
2023/10/29 03:16:42;;;;;;;8.87;1.67;;;;;;;;;;5032310;28;20211;-81
2023/10/29 03:19:09;;;;;;;12.70;2.43;;;;;;;;;;5031665;28;20231;-81
2023/10/29 03:21:37;;;;;;;10.30;1.63;;;;;;;;;;5031374;28;20232;-80
2023/10/29 03:24:04;;;;;;;11.93;2.00;;;;;;;;;;5031862;28;20207;-81
2023/10/29 03:26:31;;;;;;;12.17;2.57;;;;;;;;;;5031727;28;20201;-81
2023/10/29 03:28:59;;;;;;;12.43;1.80;;;;;;;;;;5031750;28;20228;-81
2023/10/29 03:31:27;;;;;;;11.10;2.03;;;;;;;;;;5031871;28;20748;-81
2023/10/29 03:33:54;;;;;;;15.07;2.00;;;;;;;;;;5031407;28;20259;-81
2023/10/29 03:36:22;;;;;;;12.27;2.27;;;;;;;;;;5013467;28;20196;-81
2023/10/29 03:38:49;;;;;;;12.30;1.80;;;;;;;;;;5031974;28;20276;-81
2023/10/29 03:41:21;;;;;;;13.77;2.00;;;;;;;;;;5031814;28;20764;-80
2023/10/29 03:43:48;;;;;;;12.43;2.10;;;;;;;;;;5031427;28;20611;-80
2023/10/29 03:46:15;;;;;;;7.47;2.07;;;;;;;;;;5031707;28;20635;-81
2023/10/29 03:48:45;;;;;;;14.37;2.20;;;;;;;;;;5031410;28;20287;-81
2023/10/29 03:51:13;;;;;;;14.27;1.83;;;;;;;;;;5031969;28;20196;-81
2023/10/29 03:53:40;;;;;;;12.23;1.73;;;;;;;;;;5031144;28;20251;-81
2023/10/29 03:56:08;;;;;;;12.07;1.63;;;;;;;;;;5031603;28;20258;-81
2023/10/29 03:58:35;;;;;;;12.97;2.10;;;;;;;;;;5031069;28;20227;-81
2023/10/29 04:01:02;;;;;;;16.63;1.83;;;;;;;;;;5031710;28;20578;-81
2023/10/29 04:03:30;;;;;;;12.77;2.27;;;;;;;;;;5030697;28;20283;-80
2023/10/29 04:05:58;;;;;;;13.67;1.70;;;;;;;;;;5030969;28;20653;-80
2023/10/29 04:08:26;;;;;;;13.20;2.40;;;;;;;;;;5031719;28;20230;-81
2023/10/29 04:10:53;;;;;;;16.73;3.00;;;;;;;;;;5031268;28;20223;-81
2023/10/29 04:13:20;;;;;;;12.47;1.80;;;;;;;;;;5031136;28;20240;-81
2023/10/29 04:15:47;;;;;;;14.53;1.83;;;;;;;;;;5030924;28;20242;-81
2023/10/29 04:18:14;;;;;;;19.47;2.50;;;;;;;;;;5030786;28;20200;-81
2023/10/29 04:20:41;;;;;;;13.90;2.27;;;;;;;;;;5031172;28;20295;-81
2023/10/29 04:23:10;;;;;;;13.67;1.90;;;;;;;;;;5031389;28;20287;-81
2023/10/29 04:25:37;;;;;;;14.60;2.30;;;;;;;;;;5031194;28;20200;-81
2023/10/29 04:28:05;;;;;;;14.67;2.50;;;;;;;;;;5031094;28;20196;-82
2023/10/29 04:30:32;;;;;;;11.77;2.20;;;;;;;;;;5030604;28;20773;-81
2023/10/29 04:32:59;;;;;;;12.07;2.57;;;;;;;;;;5030510;28;20702;-81
2023/10/29 04:35:26;;;;;;;7.67;2.00;;;;;;;;;;5031293;28;20212;-81
2023/10/29 04:37:53;;;;;;;11.43;1.70;;;;;;;;;;5031064;28;20205;-81
2023/10/29 04:40:22;;;;;;;17.53;2.60;;;;;;;;;;5031056;28;20235;-81
2023/10/29 04:42:49;;;;;;;11.73;2.27;;;;;;;;;;5030895;28;20200;-81
2023/10/29 04:45:17;;;;;;;12.97;2.10;;;;;;;;;;5030561;28;20211;-81
2023/10/29 04:47:44;;;;;;;12.27;1.90;;;;;;;;;;5030152;28;20197;-81
2023/10/29 04:50:11;;;;;;;12.60;2.00;;;;;;;;;;5031457;28;20251;-81
2023/10/29 04:52:39;;;;;;;12.13;2.13;;;;;;;;;;5030591;28;20200;-82
2023/10/29 04:55:06;;;;;;;11.83;2.00;;;;;;;;;;5031089;28;20299;-82
2023/10/29 04:57:35;;;;;;;15.97;2.10;;;;;;;;;;5030820;28;20283;-81
2023/10/29 05:00:02;;;;;;;14.90;2.23;;;;;;;;;;5031069;28;20204;-81
2023/10/29 05:02:30;;;;;;;12.07;1.87;;;;;;;;;;5030660;28;20294;-81
2023/10/29 05:04:57;;;;;;;14.07;2.17;;;;;;;;;;5030970;28;20197;-82
2023/10/29 05:07:24;;;;;;;11.47;1.90;;;;;;;;;;5034182;28;20247;-81
2023/10/29 05:09:51;;;;;;;11.10;2.00;;;;;;;;;;5034191;28;20208;-80
2023/10/29 05:12:18;;;;;;;12.80;1.83;;;;;;;;;;5034656;28;20234;-80
2023/10/29 05:14:50;;;;;;;10.83;2.17;;;;;;;;;;5033516;28;20888;-82
2023/10/29 05:17:17;;;;;;;14.87;1.90;;;;;;;;;;5034112;28;20204;-81
2023/10/29 05:19:45;;;;;;;12.63;2.37;;;;;;;;;;5034296;28;20250;-82
2023/10/29 05:22:12;;;;;;;13.57;2.10;;;;;;;;;;5033899;28;20296;-81
2023/10/29 05:24:39;;;;;;;14.60;1.97;;;;;;;;;;5034202;28;20224;-81
2023/10/29 05:27:06;;;;;;;13.73;2.17;;;;;;;;;;5034683;28;20255;-81
2023/10/29 05:29:34;;;;;;;14.93;2.00;;;;;;;;;;5033999;28;20328;-82
2023/10/29 05:32:03;;;;;;;12.40;2.33;;;;;;;;;;5033622;28;20226;-81
2023/10/29 05:34:30;;;;;;;10.70;1.70;;;;;;;;;;5034180;28;20298;-82
2023/10/29 05:36:58;;;;;;;12.13;1.93;;;;;;;;;;5034071;28;20220;-81
2023/10/29 05:39:25;;;;;;;11.13;2.13;;;;;;;;;;5033850;28;20288;-81
2023/10/29 05:41:52;;;;;;;13.17;2.00;;;;;;;;;;5033842;28;20302;-81
2023/10/29 05:44:19;;;;;;;17.23;1.97;;;;;;;;;;5033594;28;20197;-81
2023/10/29 05:46:47;;;;;;;9.93;2.13;;;;;;;;;;5033714;28;20228;-82
2023/10/29 05:49:16;;;;;;;15.40;2.37;;;;;;;;;;5033967;28;20201;-82
2023/10/29 05:51:43;;;;;;;11.03;1.90;;;;;;;;;;5033514;28;20238;-82
2023/10/29 05:54:10;;;;;;;13.33;2.33;;;;;;;;;;5033410;28;20228;-82
2023/10/29 05:56:38;;;;;;;12.10;1.80;;;;;;;;;;5033469;28;20199;-81
2023/10/29 05:59:05;;;;;;;9.93;2.10;;;;;;;;;;5033640;28;20295;-81
2023/10/29 06:01:32;;;;;;;15.93;2.40;;;;;;;;;;5032832;28;20207;-81
2023/10/29 06:03:59;;;;;;;13.27;2.00;;;;;;;;;;5033824;28;20258;-80
2023/10/29 06:06:28;;;;;;;18.33;2.00;;;;;;;;;;5033702;28;20197;-81
2023/10/29 06:08:55;;;;;;;13.37;2.07;;;;;;;;;;5033607;28;20698;-81
2023/10/29 06:11:22;;;;;;;15.77;2.50;;;;;;;;;;5033508;28;20692;-81
2023/10/29 06:13:53;;;;;;;14.33;2.07;;;;;;;;;;5033383;28;20313;-81
2023/10/29 06:16:20;;;;;;;17.20;2.27;;;;;;;;;;5032855;28;20200;-81
2023/10/29 06:18:47;;;;;;;9.83;1.47;;;;;;;;;;5032234;28;20236;-81
2023/10/29 06:21:14;;;;;;;11.20;1.70;;;;;;;;;;5032908;28;20197;-81
2023/10/29 06:23:43;;;;;;;11.13;2.13;;;;;;;;;;5033412;28;20220;-80
2023/10/29 06:26:10;;;;;;;8.63;1.60;;;;;;;;;;5032250;28;20227;-80
2023/10/29 06:28:37;;;;;;;7.80;1.50;;;;;;;;;;5031785;28;20228;-81
2023/10/29 06:31:04;;;;;;;11.70;2.03;;;;;;;;;;5032735;28;20307;-81
2023/10/29 06:33:32;;;;;;;10.33;2.10;;;;;;;;;;5032402;28;20687;-81
2023/10/29 06:36:00;;;;;;;9.90;2.23;;;;;;;;;;5032686;28;20640;-83
2023/10/29 06:38:27;;;;;;;9.10;1.87;;;;;;;;;;5032914;28;20275;-81
2023/10/29 06:40:55;;;;;;;10.97;1.87;;;;;;;;;;5033169;28;20238;-82
2023/10/29 06:43:23;;;;;;;10.43;1.50;;;;;;;;;;5032191;28;20295;-80
2023/10/29 06:45:50;;;;;;;14.10;2.10;;;;;;;;;;5032811;28;20291;-81
2023/10/29 06:48:17;;;;;;;9.97;2.07;;;;;;;;;;5032773;28;20232;-82
2023/10/29 06:50:45;;;;;;;13.57;2.27;;;;;;;;;;5032745;28;20197;-81
2023/10/29 06:53:12;;;;;;;12.33;2.00;;;;;;;;;;5032237;28;20196;-81
2023/10/29 06:55:42;;;;;;;9.83;1.77;;;;;;;;;;5032187;28;20210;-81
2023/10/29 06:58:11;;;;;;;15.80;2.03;;;;;;;;;;5031946;28;20197;-81
2023/10/29 07:00:38;;;;;;;13.60;3.17;;;;;;;;;;5032340;28;20196;-82
2023/10/29 07:03:05;;;;;;;11.60;2.10;;;;;;;;;;5032324;28;20235;-82
2023/10/29 07:05:33;;;;;;;11.93;2.07;;;;;;;;;;5032393;28;20197;-82
2023/10/29 07:08:01;;;;;;;8.63;2.13;;;;;;;;;;5032417;28;20673;-82
2023/10/29 07:10:28;;;;;;;14.57;1.97;;;;;;;;;;5032010;28;20635;-81
2023/10/29 07:12:56;;;;;;;11.93;2.20;;;;;;;;;;5032050;28;20200;-81
2023/10/29 07:15:25;;;;;;;11.47;2.13;;;;;;;;;;5031937;28;20238;-82
2023/10/29 07:17:52;;;;;;;13.60;2.03;;;;;;;;;;5032061;28;20207;-81
2023/10/29 07:20:19;;;;;;;11.30;1.97;;;;;;;;;;5032167;28;20271;-82
2023/10/29 07:22:47;;;;;;;10.30;1.53;;;;;;;;;;5031633;28;20196;-81
2023/10/29 07:25:14;;;;;;;10.13;1.80;;;;;;;;;;5031994;28;20286;-82
2023/10/29 07:27:41;;;;;;;10.83;2.10;;;;;;;;;;5031802;28;20266;-82
2023/10/29 07:30:10;;;;;;;13.07;2.07;;;;;;;;;;5031420;28;20319;-81
2023/10/29 07:32:38;;;;;;;12.07;2.10;;;;;;;;;;5032035;28;20200;-81
2023/10/29 07:35:06;;;;;;;7.57;1.60;;;;;;;;;;5031895;28;20232;-81
2023/10/29 07:37:33;;;;;;;10.13;1.70;;;;;;;;;;5031823;28;20239;-81
2023/10/29 07:40:00;;;;;;;9.90;1.67;;;;;;;;;;5031860;28;20279;-81
2023/10/29 07:42:27;;;;;;;8.10;1.33;;;;;;;;;;5031192;28;20280;-80
2023/10/29 07:44:55;;;;;;;5.47;1.20;;;;;;;;;;5031577;28;20299;-80
2023/10/29 07:47:22;;;;;;;4.57;0.90;;;;;;;;;;5030894;28;20743;-79
2023/10/29 07:49:50;;;;;;;4.57;1.17;;;;;;;;;;5031412;28;20728;-80
2023/10/29 07:52:18;;;;;;;5.60;1.10;;;;;;;;;;5031574;28;20246;-80
2023/10/29 07:54:45;;;;;;;6.10;1.23;;;;;;;;;;5031575;28;20279;-80
2023/10/29 07:57:12;;;;;;;7.53;1.47;;;;;;;;;;5031092;28;20196;-79
2023/10/29 07:59:39;;;;;;;8.67;1.63;;;;;;;;;;5031283;28;20235;-80
2023/10/29 08:02:06;;;;;;;7.10;1.40;;;;;;;;;;5031596;28;20220;-78
2023/10/29 08:04:34;;;;;;;5.17;1.13;;;;;;;;;;5031088;28;20231;-78
2023/10/29 08:07:03;;;;;;;4.23;1.30;;;;;;;;;;5031155;28;20196;-78
2023/10/29 08:09:30;;;;;;;8.80;1.77;;;;;;;;;;5031486;28;20231;-77
2023/10/29 08:11:58;;;;;;;4.23;1.50;;;;;;;;;;5030876;28;20216;-78
2023/10/29 08:14:25;;;;;;;6.27;1.60;;;;;;;;;;5031205;28;20264;-78
2023/10/29 08:16:52;;;;;;;7.87;1.70;;;;;;;;;;5031428;28;20228;-77
2023/10/29 08:19:19;;;;;;;6.50;1.27;;;;;;;;;;5031482;28;20220;-78
2023/10/29 08:21:46;;;;;;;9.30;1.60;;;;;;;;;;5031229;28;20288;-77
2023/10/29 08:24:15;;;;;;;5.23;1.40;;;;;;;;;;5031139;28;20204;-78
2023/10/29 08:26:42;;;;;;;7.20;1.10;;;;;;;;;;5030623;28;20283;-78
2023/10/29 08:29:09;;;;;;;6.47;1.50;;;;;;;;;;5030957;28;20232;-79
2023/10/29 08:31:37;;;;;;;5.72;1.92;;;;;;;;;;5031078;28;20228;-79
2023/10/29 08:34:04;;;;;;;4.70;1.40;;;;;;;;;;5030790;28;20233;-78
2023/10/29 08:36:31;;;;;;;9.90;1.70;;;;;;;;;;5031260;28;20255;-78
2023/10/29 08:38:58;;;;;;;4.43;1.50;;;;;;;;;;5030741;28;20239;-78
2023/10/29 08:41:27;;;;;;;5.78;1.27;;;;;;;;;;5033108;28;20199;-78
2023/10/29 08:43:54;;;;;;;4.05;1.20;;;;;;;;;;5034849;28;20204;-79
2023/10/29 08:46:21;;;;;;;4.82;1.35;;;;;;;;;;5035408;28;20202;-77
2023/10/29 08:48:51;;;;;;;2.92;1.15;;;;;;;;;;5034758;28;20197;-78
2023/10/29 08:51:18;;;;;;;4.38;1.20;;;;;;;;;;5034578;28;20286;-77
2023/10/29 08:53:45;;;;;;;2.25;1.10;;;;;;;;;;5033938;28;20604;-77
2023/10/29 08:56:12;;;;;;;4.13;1.20;;;;;;;;;;5034589;28;20224;-78
2023/10/29 08:58:41;;;;;;;4.00;1.17;;;;;;;;;;5034203;28;20208;-77
2023/10/29 09:01:09;;;;;;;3.33;0.90;;;;;;;;;;5033954;28;20195;-79
2023/10/29 09:03:36;;;;;;;3.90;0.90;;;;;;;;;;5034573;28;20200;-80
2023/10/29 09:06:04;;;;;;;4.40;1.15;;;;;;;;;;5034370;28;20274;-79
2023/10/29 09:08:32;;;;;;;5.25;1.00;;;;;;;;;;5033860;28;20193;-80
2023/10/29 09:11:00;;;;;;;4.40;0.98;;;;;;;;;;5020351;28;20211;-80
2023/10/29 09:13:27;;;;;;;4.20;0.77;;;;;;;;;;5027047;28;20660;-79
2023/10/29 09:15:57;;;;;;;4.68;1.10;;;;;;;;;;5028791;28;20280;-81
2023/10/29 09:18:25;;;;;;;4.00;0.90;;;;;;;;;;5029375;28;20204;-80
2023/10/29 09:20:52;;;;;;;3.35;0.77;;;;;;;;;;5029080;28;20258;-80
2023/10/29 09:23:19;;;;;;;4.60;1.00;;;;;;;;;;5029195;28;20212;-80
2023/10/29 09:25:47;;;;;;;2.78;0.88;;;;;;;;;;5028988;28;20291;-80
2023/10/29 09:28:14;;;;;;;8.38;1.30;;;;;;;;;;5028375;28;20571;-79
2023/10/29 09:30:42;;;;;;;4.68;1.40;;;;;;;;;;5028875;28;20286;-79
2023/10/29 09:33:12;;;;;;;4.80;1.15;;;;;;;;;;5043797;28;20231;-79
2023/10/29 09:35:40;;;;;;;7.65;1.30;;;;;;;;;;5026759;28;20236;-78
2023/10/29 09:38:07;;;;;;;7.25;1.20;;;;;;;;;;5035531;28;20200;-78
2023/10/29 09:40:34;;;;;;;5.05;1.27;;;;;;;;;;5030700;28;20204;-78
2023/10/29 09:43:08;;;;;;;8.43;1.53;;;;;;;;;;5025343;28;20200;-78
2023/10/29 09:45:39;;;;;;;5.50;1.03;;;;;;;;;;5034563;28;20204;-79
2023/10/29 09:48:09;;;;;;;4.70;0.80;;;;;;;;;;5032388;28;20286;-78
2023/10/29 09:50:37;;;;;;;5.23;1.20;;;;;;;;;;5028579;28;20811;-78
2023/10/29 09:53:06;;;;;;;3.60;1.10;;;;;;;;;;5030031;28;20220;-79
2023/10/29 09:55:35;;;;;;;3.10;0.67;;;;;;;;;;5026255;28;20224;-80
2023/10/29 09:58:04;;;;;;;4.28;0.80;;;;;;;;;;5033543;28;20651;-79
2023/10/29 10:00:31;;;;;;;2.22;0.73;;;;;;;;;;5037060;28;20395;-80
2023/10/29 10:02:59;;;;;;;5.68;1.15;;;;;;;;;;5029325;28;20291;-79
2023/10/29 10:05:28;;;;;;;6.45;1.42;;;;;;;;;;5027896;28;20665;-77
2023/10/29 10:07:57;;;;;;;3.65;0.88;;;;;;;;;;5034418;28;20229;-77
2023/10/29 10:10:37;;;;;;;5.88;1.15;;;;;;;;;;5039476;28;20203;-77
2023/10/29 10:13:05;;;;;;;4.63;1.13;;;;;;;;;;5024964;28;20196;-79
2023/10/29 10:15:32;;;;;;;3.95;1.08;;;;;;;;;;5027425;28;20601;-79
2023/10/29 10:18:00;;;;;;;6.50;1.45;;;;;;;;;;5029328;28;20226;-79
2023/10/29 10:20:28;;;;;;;7.65;1.35;;;;;;;;;;5029141;28;20207;-81
2023/10/29 10:23:00;;;;;;;7.60;1.00;;;;;;;;;;5027333;28;20306;-79
2023/10/29 10:25:27;;;;;;;4.47;0.93;;;;;;;;;;5031317;28;20200;-78
2023/10/29 10:27:55;;;;;;;4.93;1.10;;;;;;;;;;5030720;28;20688;-78
2023/10/29 10:30:26;;;;;;;4.88;0.75;;;;;;;;;;5028347;28;20343;-79
2023/10/29 10:32:53;;;;;;;4.45;0.95;;;;;;;;;;5029335;28;20216;-78
2023/10/29 10:35:21;;;;;;;4.82;1.05;;;;;;;;;;5027517;28;20331;-79
2023/10/29 10:37:55;;;;;;;5.70;1.40;;;;;;;;;;5025669;28;20930;-78
2023/10/29 10:40:26;;;;;;;7.63;1.30;;;;;;;;;;5033870;28;20211;-78
2023/10/29 10:42:57;;;;;;;7.47;1.90;;;;;;;;;;5031525;28;20204;-79
2023/10/29 10:45:27;;;;;;;7.38;1.30;;;;;;;;;;5027113;28;20307;-78
2023/10/29 10:47:56;;;;;;;8.52;1.88;;;;;;;;;;5035928;28;21145;-77
2023/10/29 10:50:24;;;;;;;8.68;1.88;;;;;;;;;;5035146;28;20940;-76
2023/10/29 10:52:52;;;;;;;8.60;2.50;;;;;;;;;;5026545;28;20633;-77
2023/10/29 10:55:19;;;;;;;9.77;2.95;;;;;;;;;;5028103;28;20247;-79
2023/10/29 10:57:49;;;;;;;9.73;2.05;;;;;;;;;;5028200;28;20235;-77
2023/10/29 11:00:17;;;;;;;8.40;2.15;;;;;;;;;;5028244;28;20196;-78
2023/10/29 11:02:45;;;;;;;7.90;2.47;;;;;;;;;;5028028;28;20211;-79
2023/10/29 11:05:13;;;;;;;7.47;1.58;;;;;;;;;;5038726;28;20219;-81
2023/10/29 11:07:41;;;;;;;9.63;1.65;;;;;;;;;;5030400;28;20254;-80
2023/10/29 11:10:09;;;;;;;9.23;1.60;;;;;;;;;;5029287;28;20206;-78
2023/10/29 11:12:37;;;;;;;8.50;1.42;;;;;;;;;;5029507;28;20199;-81
2023/10/29 11:15:16;;;;;;;12.15;1.63;;;;;;;;;;5028303;28;20255;-80
2023/10/29 11:17:53;;;;;;;11.80;2.03;;;;;;;;;;5032841;28;20200;-80
2023/10/29 11:20:41;;;;;;;8.07;1.25;;;;;;;;;;5031626;28;21038;-79
2023/10/29 11:23:08;;;;;;;7.38;1.55;;;;;;;;;;5024741;28;20757;-80
2023/10/29 11:25:37;;;;;;;7.47;1.42;;;;;;;;;;5027994;28;21566;-79
2023/10/29 11:28:04;;;;;;;8.60;2.15;;;;;;;;;;5026581;28;20203;-79
2023/10/29 11:30:32;;;;;;;7.13;2.25;;;;;;;;;;5030346;28;20228;-77
2023/10/29 11:33:17;;;;;;;7.32;1.90;;;;;;;;;;5026571;28;20287;-79
2023/10/29 11:35:45;;;;;;;9.40;2.15;;;;;;;;;;5026307;28;20236;-77
2023/10/29 11:38:29;;;;;;;8.55;1.80;;;;;;;;;;5029774;28;20249;-79
2023/10/29 11:40:57;;;;;;;5.35;1.77;;;;;;;;;;5027050;28;20287;-78
2023/10/29 11:43:24;;;;;;;7.82;2.20;;;;;;;;;;5025320;28;20287;-79
2023/10/29 11:45:57;;;;;;;7.05;2.13;;;;;;;;;;5030125;28;20287;-80
2023/10/29 11:48:25;;;;;;;3.90;1.40;;;;;;;;;;5023563;28;20209;-82
2023/10/29 11:51:11;;;;;;;8.82;1.80;;;;;;;;;;5025734;28;20208;-81
2023/10/29 11:53:39;;;;;;;6.05;1.92;;;;;;;;;;5030306;28;20200;-81
2023/10/29 11:56:09;;;;;;;7.00;1.55;;;;;;;;;;5030600;28;20263;-83
2023/10/29 11:58:37;;;;;;;8.93;2.00;;;;;;;;;;5030177;28;20251;-81
2023/10/29 12:01:06;;;;;;;8.38;1.80;;;;;;;;;;5026789;28;20254;-80
2023/10/29 12:03:33;;;;;;;5.18;1.40;;;;;;;;;;5025853;28;20600;-82
2023/10/29 12:06:00;;;;;;;5.60;1.30;;;;;;;;;;5023672;28;20288;-82
2023/10/29 12:08:30;;;;;;;7.28;1.77;;;;;;;;;;5030282;28;20287;-81
2023/10/29 12:10:58;;;;;;;7.72;1.60;;;;;;;;;;5030843;28;20258;-82
2023/10/29 12:13:25;;;;;;;7.78;1.58;;;;;;;;;;5047336;28;20199;-82
2023/10/29 12:15:56;;;;;;;5.43;1.65;;;;;;;;;;5039053;28;20312;-82
2023/10/29 12:18:25;;;;;;;6.13;1.67;;;;;;;;;;5044227;28;20299;-82
2023/10/29 12:20:52;;;;;;;7.70;1.50;;;;;;;;;;5037688;28;21630;-80
2023/10/29 12:23:19;;;;;;;8.90;1.77;;;;;;;;;;5036732;28;20291;-80
2023/10/29 12:25:47;;;;;;;11.43;1.98;;;;;;;;;;5035560;28;20227;-82
2023/10/29 12:28:14;;;;;;;6.20;1.42;;;;;;;;;;5031000;28;20196;-82
2023/10/29 12:30:42;;;;;;;7.93;1.75;;;;;;;;;;5044777;28;20704;-82
2023/10/29 12:33:19;;;;;;;8.10;1.50;;;;;;;;;;5046277;28;20284;-82
2023/10/29 12:35:48;;;;;;;6.13;1.55;;;;;;;;;;5028331;28;20223;-82
2023/10/29 12:38:16;;;;;;;9.20;1.45;;;;;;;;;;5029678;28;20204;-82
2023/10/29 12:41:01;;;;;;;5.65;1.58;;;;;;;;;;5034940;28;20312;-81
2023/10/29 12:43:36;;;;;;;7.30;1.60;;;;;;;;;;5050822;28;20222;-83
2023/10/29 12:46:03;;;;;;;6.70;1.48;;;;;;;;;;5027203;28;20282;-81
2023/10/29 12:48:31;;;;;;;4.32;1.30;;;;;;;;;;5024521;28;20207;-81
2023/10/29 12:51:00;;;;;;;5.53;2.20;;;;;;;;;;5029835;28;20254;-82
2023/10/29 12:53:28;;;;;;;9.55;2.60;;;;;;;;;;5023118;28;20203;-82
2023/10/29 12:55:56;;;;;;;8.15;2.00;;;;;;;;;;5027130;28;20673;-83
2023/10/29 12:58:24;;;;;;;3.45;1.15;;;;;;;;;;5031057;28;20224;-80
2023/10/29 13:00:52;;;;;;;4.57;1.20;;;;;;;;;;5028390;28;20232;-82
2023/10/29 13:03:19;;;;;;;6.47;1.30;;;;;;;;;;5027183;28;20200;-82
2023/10/29 13:05:46;;;;;;;4.47;1.10;;;;;;;;;;5035343;28;20225;-82
2023/10/29 13:08:16;;;;;;;4.30;0.90;;;;;;;;;;5036217;28;20189;-82
2023/10/29 13:10:46;;;;;;;4.80;0.95;;;;;;;;;;5029674;28;20648;-81
2023/10/29 13:13:13;;;;;;;7.82;1.10;;;;;;;;;;5031089;28;20283;-81
2023/10/29 13:15:41;;;;;;;4.90;1.23;;;;;;;;;;5027030;28;20598;-81
2023/10/29 13:18:09;;;;;;;7.20;1.15;;;;;;;;;;5028619;28;20267;-80
2023/10/29 13:20:36;;;;;;;4.13;1.00;;;;;;;;;;5023908;28;20215;-81
2023/10/29 13:23:04;;;;;;;8.30;1.40;;;;;;;;;;5028454;28;20775;-82
2023/10/29 13:25:32;;;;;;;6.97;1.45;;;;;;;;;;5033736;28;20672;-81
2023/10/29 13:28:00;;;;;;;8.90;1.60;;;;;;;;;;5029914;28;20280;-79
2023/10/29 13:30:28;;;;;;;10.48;1.60;;;;;;;;;;5029022;28;20325;-81
2023/10/29 13:32:55;;;;;;;7.25;1.38;;;;;;;;;;5029124;28;20295;-82
2023/10/29 13:35:22;;;;;;;9.95;1.95;;;;;;;;;;5032170;28;20235;-81
2023/10/29 13:37:49;;;;;;;7.70;1.30;;;;;;;;;;5029516;28;20240;-81
2023/10/29 13:40:18;;;;;;;8.05;1.52;;;;;;;;;;5029250;28;20200;-81
2023/10/29 13:42:46;;;;;;;9.80;1.80;;;;;;;;;;5039795;28;20188;-82
2023/10/29 13:45:14;;;;;;;7.57;1.73;;;;;;;;;;5030973;28;20228;-81
2023/10/29 13:47:42;;;;;;;7.25;1.40;;;;;;;;;;5028319;28;20279;-81
2023/10/29 13:50:10;;;;;;;8.15;1.65;;;;;;;;;;5030794;28;20255;-81
2023/10/29 13:52:37;;;;;;;6.78;1.63;;;;;;;;;;5023361;28;20228;-81
2023/10/29 13:55:05;;;;;;;6.18;1.60;;;;;;;;;;5030131;28;20193;-80
2023/10/29 13:57:33;;;;;;;9.25;1.63;;;;;;;;;;5027318;28;20232;-80
2023/10/29 14:00:03;;;;;;;9.63;1.67;;;;;;;;;;5042001;28;20218;-81
2023/10/29 14:02:30;;;;;;;12.50;2.30;;;;;;;;;;5027886;28;20204;-81
2023/10/29 14:04:58;;;;;;;7.20;1.98;;;;;;;;;;5031042;28;20203;-82
2023/10/29 14:07:26;;;;;;;8.20;1.80;;;;;;;;;;5032152;28;20207;-82
2023/10/29 14:09:53;;;;;;;9.65;1.83;;;;;;;;;;5035791;28;20204;-82
2023/10/29 14:12:21;;;;;;;6.60;1.70;;;;;;;;;;5030983;28;20205;-80
2023/10/29 14:14:48;;;;;;;10.20;1.83;;;;;;;;;;5036207;28;20223;-81
2023/10/29 14:17:16;;;;;;;7.68;1.90;;;;;;;;;;5030298;28;20228;-82
2023/10/29 14:19:44;;;;;;;7.97;1.55;;;;;;;;;;5031026;28;20201;-82
2023/10/29 14:22:11;;;;;;;8.65;1.95;;;;;;;;;;5029614;28;20665;-80
2023/10/29 14:24:38;;;;;;;10.82;2.08;;;;;;;;;;5028873;28;20205;-82
2023/10/29 14:27:05;;;;;;;9.38;2.05;;;;;;;;;;5027442;28;20315;-82
2023/10/29 14:29:33;;;;;;;8.05;1.88;;;;;;;;;;5028387;28;20324;-83
2023/10/29 14:32:00;;;;;;;8.52;1.92;;;;;;;;;;5031584;28;20220;-83
2023/10/29 14:34:29;;;;;;;11.13;1.92;;;;;;;;;;5030556;28;20240;-82
2023/10/29 14:36:56;;;;;;;8.10;1.60;;;;;;;;;;5038353;28;20237;-82
2023/10/29 14:39:24;;;;;;;9.30;1.95;;;;;;;;;;5034113;28;20259;-82
2023/10/29 14:41:51;;;;;;;10.68;2.13;;;;;;;;;;5028791;28;20205;-81